Time;durP1;ratioP1;P1;durP2;ratioP2;P2;SDS_P1;SDS_P2;PMS_P1;PMS_P2;Temp;Humidity;BMP_temperature;BMP_pressure;BME280_temperature;BME280_humidity;BME280_pressure;Samples;Min_cycle;Max_cycle;Signal;HPM_P1;HPM_P2
2022/02/06 00:01:44;;;;;;;28.32;17.57;;;;;;;1.27;77.47;100249.44;1743331;82;21835;-65
2022/02/06 00:04:51;;;;;;;30.97;18.35;;;;;;;1.26;77.64;100245.91;1743938;81;21227;-66
2022/02/06 00:07:57;;;;;;;32.03;18.62;;;;;;;1.26;77.85;100249.95;1743623;82;21207;-66
2022/02/06 00:11:04;;;;;;;31.90;19.62;;;;;;;1.24;78.05;100245.16;1744216;81;21274;-65
2022/02/06 00:14:10;;;;;;;31.62;18.77;;;;;;;1.28;78.33;100248.48;1716050;82;21263;-65
2022/02/06 00:17:15;;;;;;;31.10;19.10;;;;;;;1.31;78.50;100242.37;1714060;83;21211;-67
2022/02/06 00:20:21;;;;;;;34.08;20.75;;;;;;;1.34;78.60;100242.60;1715689;81;21254;-67
2022/02/06 00:23:29;;;;;;;30.80;19.10;;;;;;;1.34;78.79;100240.77;1713596;83;21246;-66
2022/02/06 00:26:43;;;;;;;34.25;20.20;;;;;;;1.36;78.90;100245.53;1713661;83;21191;-66
2022/02/06 00:29:55;;;;;;;30.45;19.00;;;;;;;1.37;79.01;100240.53;1713717;82;21748;-65
2022/02/06 00:39:11;;;;;;;28.10;18.42;;;;;;;1.38;79.19;100232.80;1732469;82;21273;-65
2022/02/06 00:42:18;;;;;;;31.15;19.62;;;;;;;1.32;79.16;100225.20;1734999;82;21184;-66
2022/02/06 00:45:23;;;;;;;30.00;19.27;;;;;;;1.26;79.27;100226.17;1735063;82;21460;-66
2022/02/06 00:48:32;;;;;;;31.60;19.62;;;;;;;1.21;79.42;100228.36;1735347;82;21910;-65
2022/02/06 00:51:46;;;;;;;30.43;19.77;;;;;;;1.16;79.61;100226.52;1735643;82;21399;-65
2022/02/06 00:54:44;;;;;;;33.33;20.43;;;;;;;1.12;79.82;100219.19;1742440;81;21351;-65
2022/02/06 00:57:50;;;;;;;30.85;19.75;;;;;;;1.10;80.05;100219.78;1741194;82;21184;-67
2022/02/06 01:00:55;;;;;;;34.27;20.72;;;;;;;1.10;80.23;100221.13;1742592;81;21377;-66
2022/02/06 01:04:01;;;;;;;32.42;20.27;;;;;;;1.12;80.35;100219.19;1741685;82;21359;-66
2022/02/06 01:07:07;;;;;;;30.35;18.92;;;;;;;1.11;80.41;100219.30;1743822;81;21255;-65
2022/02/06 01:10:14;;;;;;;33.85;19.55;;;;;;;1.13;80.50;100215.98;1742744;82;21334;-65
2022/02/06 01:13:28;;;;;;;27.93;18.87;;;;;;;1.13;80.60;100210.11;1733394;81;21203;-65
2022/02/06 01:16:33;;;;;;;30.00;19.73;;;;;;;1.15;80.62;100221.63;1733605;81;21528;-67
2022/02/06 01:19:49;;;;;;;33.38;20.75;;;;;;;1.14;80.60;100217.72;1743799;81;21374;-65
2022/02/06 01:22:59;;;;;;;33.55;19.57;;;;;;;1.12;80.60;100217.84;1702769;83;21193;-65
2022/02/06 01:26:06;;;;;;;35.65;20.15;;;;;;;1.08;80.60;100219.04;1702349;83;21236;-66
2022/02/06 01:32:41;;;;;;;36.15;20.65;;;;;;;0.98;80.62;100219.38;1703298;83;21224;-66
2022/02/06 01:36:05;;;;;;;32.13;19.12;;;;;;;0.95;80.59;100214.23;1701834;84;21213;-66
2022/02/06 01:39:12;;;;;;;34.33;20.48;;;;;;;0.90;80.60;100217.80;1702232;83;21276;-66
2022/02/06 01:42:22;;;;;;;30.80;19.30;;;;;;;0.88;80.58;100214.35;1702932;83;21235;-66
2022/02/06 01:45:30;;;;;;;30.55;19.48;;;;;;;0.87;80.52;100213.96;1702413;84;21880;-65
2022/02/06 02:02:21;;;;;;;35.08;19.87;;;;;;;0.70;80.43;100211.72;1702624;83;21244;-67
2022/02/06 02:11:56;;;;;;;30.17;18.12;;;;;;;0.63;80.57;100218.58;1653791;85;20297;-66
2022/02/06 02:21:57;;;;;;;31.27;19.05;;;;;;;0.65;80.82;100221.98;1691128;80;21212;-67
2022/02/06 02:28:16;;;;;;;32.15;17.92;;;;;;;0.58;80.83;100218.06;1728423;83;21331;-66
2022/02/06 02:47:39;;;;;;;29.12;16.45;;;;;;;0.32;80.93;100216.98;1745516;81;21807;-66
2022/02/06 02:50:51;;;;;;;28.77;17.62;;;;;;;0.26;80.89;100222.80;1742768;81;21200;-66
2022/02/06 02:53:57;;;;;;;30.27;17.35;;;;;;;0.18;80.84;100224.73;1744259;81;21377;-66
2022/02/06 02:57:15;;;;;;;29.07;17.05;;;;;;;0.12;80.85;100232.39;1743240;82;21326;-67
2022/02/06 03:03:17;;;;;;;32.93;17.67;;;;;;;0.02;80.88;100248.36;1699974;82;21457;-66
2022/02/06 03:06:22;;;;;;;28.40;16.73;;;;;;;-0.03;80.85;100242.45;1743884;82;21228;-66
2022/02/06 03:09:32;;;;;;;30.80;17.73;;;;;;;-0.09;80.87;100240.22;1744300;81;21361;-66
2022/02/06 03:12:35;;;;;;;28.15;15.65;;;;;;;-0.14;80.87;100249.97;1743677;82;21262;-65
2022/02/06 03:19:08;;;;;;;31.42;15.80;;;;;;;-0.21;80.87;100253.23;1743769;81;21247;-66
2022/02/06 03:22:19;;;;;;;23.57;14.90;;;;;;;-0.27;80.92;100255.02;1743490;81;21874;-66
2022/02/06 03:25:21;;;;;;;24.35;14.85;;;;;;;-0.30;80.97;100260.12;1735627;81;21327;-67
2022/02/06 03:28:29;;;;;;;23.50;15.35;;;;;;;-0.35;81.06;100257.41;1687472;84;21250;-66
2022/02/06 03:31:36;;;;;;;25.35;16.02;;;;;;;-0.40;81.13;100257.70;1735063;82;21354;-66
2022/02/06 03:34:42;;;;;;;26.42;14.87;;;;;;;-0.42;81.21;100264.18;1734936;81;21370;-65
2022/02/06 03:37:48;;;;;;;25.15;14.68;;;;;;;-0.44;81.32;100271.48;1735197;82;21390;-65
2022/02/06 03:41:00;;;;;;;23.95;15.15;;;;;;;-0.47;81.38;100273.05;1673207;85;21547;-66
2022/02/06 03:44:08;;;;;;;24.52;14.50;;;;;;;-0.51;81.41;100269.72;1688473;83;21294;-66
2022/02/06 03:47:18;;;;;;;26.17;13.45;;;;;;;-0.54;81.41;100267.75;1735200;82;21338;-65
2022/02/06 03:50:18;;;;;;;24.87;15.25;;;;;;;-0.55;81.47;100274.95;1734899;81;21365;-66
2022/02/06 03:53:28;;;;;;;20.85;13.08;;;;;;;-0.56;81.52;100275.06;1689553;84;21582;-66
2022/02/06 03:56:34;;;;;;;24.23;13.43;;;;;;;-0.56;81.57;100277.74;1735155;82;21224;-66
2022/02/06 03:59:40;;;;;;;18.30;11.83;;;;;;;-0.55;81.59;100274.08;1735085;81;21891;-67
2022/02/06 04:02:48;;;;;;;23.52;12.75;;;;;;;-0.56;81.52;100275.06;1673283;85;21363;-66
2022/02/06 04:05:54;;;;;;;17.52;11.68;;;;;;;-0.59;81.43;100273.94;1688295;83;21388;-67
2022/02/06 04:09:00;;;;;;;20.82;12.18;;;;;;;-0.60;81.38;100275.75;1735355;81;21330;-66
2022/02/06 04:12:06;;;;;;;17.48;11.35;;;;;;;-0.62;81.29;100280.87;1735541;82;21819;-67
2022/02/06 04:15:23;;;;;;;22.52;12.43;;;;;;;-0.63;81.23;100277.79;1735007;81;21358;-67
2022/02/06 04:21:47;;;;;;;21.05;11.68;;;;;;;-0.65;81.17;100281.09;1735416;82;21354;-66
2022/02/06 04:24:52;;;;;;;19.00;11.35;;;;;;;-0.66;81.18;100280.22;1735476;79;21224;-66
2022/02/06 04:27:58;;;;;;;19.32;12.20;;;;;;;-0.66;81.14;100279.35;1734608;82;21354;-67
2022/02/06 04:31:03;;;;;;;18.67;11.85;;;;;;;-0.66;81.05;100271.29;1734394;81;21594;-66
2022/02/06 04:34:08;;;;;;;23.15;12.35;;;;;;;-0.65;80.96;100280.59;1686653;83;21830;-66
2022/02/06 04:37:45;;;;;;;20.17;11.78;;;;;;;-0.66;80.82;100279.35;1734524;82;21354;-67
2022/02/06 04:40:37;;;;;;;20.23;11.83;;;;;;;-0.68;80.68;100286.18;1734910;81;21208;-67
2022/02/06 04:47:34;;;;;;;20.00;11.63;;;;;;;-0.72;80.44;100279.31;1688205;84;21926;-66
2022/02/06 05:20:46;;;;;;;58.00;22.48;;;;;;;-0.88;79.21;100316.27;1735210;81;21409;-66
2022/02/06 05:27:03;;;;;;;55.75;22.67;;;;;;;-0.62;78.90;100321.19;1733181;82;21322;-68
2022/02/06 05:30:05;;;;;;;58.20;24.70;;;;;;;-0.43;78.63;100331.03;1744808;81;21365;-68
2022/02/06 05:33:07;;;;;;;48.42;20.37;;;;;;;-0.27;78.32;100330.32;1743289;82;21436;-67
2022/02/06 05:36:13;;;;;;;52.67;23.55;;;;;;;-0.14;77.98;100324.42;1743848;81;21357;-67
2022/02/06 05:39:18;;;;;;;34.38;17.80;;;;;;;-0.02;77.64;100327.08;1743462;81;21914;-67
2022/02/06 05:42:23;;;;;;;32.23;16.90;;;;;;;0.12;77.39;100331.95;1745059;81;21318;-67
2022/02/06 05:45:29;;;;;;;28.23;14.58;;;;;;;0.24;77.11;100333.78;1743437;81;21204;-67
2022/02/06 05:48:34;;;;;;;27.17;15.78;;;;;;;0.36;76.88;100327.00;1740935;81;21357;-68
2022/02/06 05:51:39;;;;;;;42.17;23.55;;;;;;;0.49;76.61;100330.99;1728477;81;21214;-67
2022/02/06 05:54:45;;;;;;;56.77;30.70;;;;;;;0.58;76.19;100326.26;1713174;82;21235;-67
2022/02/06 05:57:51;;;;;;;47.03;26.50;;;;;;;0.64;75.78;100330.70;1713136;83;21234;-67
2022/02/06 06:00:56;;;;;;;41.88;24.70;;;;;;;0.69;75.36;100329.88;1713027;82;21263;-68
2022/02/06 06:04:01;;;;;;;49.10;29.30;;;;;;;0.77;75.15;100328.81;1713266;82;21242;-67
2022/02/06 06:07:06;;;;;;;59.30;32.53;;;;;;;0.85;74.82;100333.14;1713175;83;21183;-67
2022/02/06 06:10:12;;;;;;;63.73;31.90;;;;;;;0.95;74.54;100325.22;1713457;82;21223;-67
2022/02/06 06:13:17;;;;;;;47.20;22.87;;;;;;;1.05;74.36;100322.17;1712185;83;21203;-67
2022/02/06 06:16:23;;;;;;;39.42;20.17;;;;;;;1.17;74.20;100326.64;1712386;83;21784;-67
2022/02/06 06:19:30;;;;;;;28.25;16.20;;;;;;;1.32;74.05;100329.00;1713205;82;21203;-68
2022/02/06 06:22:35;;;;;;;25.57;14.83;;;;;;;1.48;73.75;100329.53;1703148;83;21196;-68
2022/02/06 06:25:44;;;;;;;26.30;16.50;;;;;;;1.64;73.42;100337.75;1713747;82;21768;-68
2022/02/06 06:28:50;;;;;;;26.57;17.57;;;;;;;1.76;72.97;100335.45;1708743;82;21381;-68
2022/02/06 06:31:55;;;;;;;30.30;18.32;;;;;;;1.87;72.58;100339.51;1708970;83;21215;-68
2022/02/06 06:35:03;;;;;;;33.65;22.80;;;;;;;1.99;72.25;100334.47;1708454;82;21358;-67
2022/02/06 06:38:12;;;;;;;27.05;18.17;;;;;;;2.10;71.85;100339.38;1690186;83;21232;-68
2022/02/06 06:41:17;;;;;;;23.60;14.18;;;;;;;2.22;71.58;100336.19;1709443;83;21436;-67
2022/02/06 06:44:22;;;;;;;25.25;13.80;;;;;;;2.32;71.26;100339.84;1708422;82;21239;-68
2022/02/06 06:47:28;;;;;;;64.30;36.38;;;;;;;2.38;71.05;100337.50;1708374;83;21354;-68
2022/02/06 06:50:34;;;;;;;26.15;15.58;;;;;;;2.43;70.81;100343.39;1708275;82;21938;-67
2022/02/06 06:53:43;;;;;;;24.57;15.05;;;;;;;2.49;70.73;100339.34;1708175;84;21438;-68
2022/02/06 06:57:02;;;;;;;38.40;21.75;;;;;;;2.56;70.52;100336.48;1707974;84;21855;-68
2022/02/06 07:03:13;;;;;;;15.93;9.60;;;;;;;2.73;70.29;100338.64;1708654;83;21714;-67
2022/02/06 07:06:18;;;;;;;15.72;8.70;;;;;;;2.77;70.08;100334.72;1708224;83;21195;-68
2022/02/06 07:09:24;;;;;;;15.75;10.32;;;;;;;2.83;70.03;100332.84;1707968;82;21827;-67
2022/02/06 07:12:30;;;;;;;16.05;9.23;;;;;;;2.96;70.11;100333.06;1708228;83;21393;-68
2022/02/06 07:15:36;;;;;;;15.13;9.85;;;;;;;3.08;69.82;100337.42;1707852;82;21736;-67
2022/02/06 07:18:41;;;;;;;18.35;9.80;;;;;;;3.17;69.60;100331.73;1708281;83;21227;-67
2022/02/06 07:21:47;;;;;;;15.38;9.33;;;;;;;3.24;69.47;100335.62;1708003;84;21192;-67
2022/02/06 07:24:54;;;;;;;13.45;9.98;;;;;;;3.31;69.27;100335.47;1708022;82;21223;-66
2022/02/06 07:27:59;;;;;;;14.90;8.78;;;;;;;3.42;69.12;100335.89;1707770;83;21377;-68
2022/02/06 07:31:04;;;;;;;14.50;8.58;;;;;;;3.55;69.07;100333.33;1708597;82;21482;-66
2022/02/06 07:34:09;;;;;;;12.05;7.92;;;;;;;3.71;68.84;100339.13;1708835;82;21370;-67
2022/02/06 07:37:16;;;;;;;15.32;9.78;;;;;;;3.82;68.50;100343.63;1708413;82;21397;-66
2022/02/06 07:40:22;;;;;;;16.07;10.15;;;;;;;3.89;68.19;100344.80;1720126;82;22050;-65
2022/02/06 07:43:28;;;;;;;14.75;8.80;;;;;;;3.99;68.18;100335.75;1735265;81;21358;-66
2022/02/06 07:46:46;;;;;;;15.18;9.30;;;;;;;4.11;67.98;100345.97;1749841;81;21204;-66
2022/02/06 07:49:51;;;;;;;18.85;9.45;;;;;;;4.15;67.71;100341.52;1768209;80;21350;-65
2022/02/06 07:52:56;;;;;;;18.50;9.20;;;;;;;4.29;67.70;100345.70;1769164;80;21330;-65
2022/02/06 07:56:02;;;;;;;13.80;9.03;;;;;;;4.37;67.44;100344.52;1708049;82;21445;-66
2022/02/06 07:59:07;;;;;;;17.23;9.05;;;;;;;4.39;67.24;100346.08;1708413;82;21215;-65
2022/02/06 08:02:15;;;;;;;21.12;10.53;;;;;;;4.48;67.19;100346.63;1710426;82;21855;-65
2022/02/06 08:05:22;;;;;;;23.27;13.13;;;;;;;4.62;67.23;100350.80;1717579;82;21219;-67
2022/02/06 08:08:28;;;;;;;28.98;13.95;;;;;;;4.76;66.90;100346.84;1732795;82;21357;-67
2022/02/06 08:11:41;;;;;;;19.05;9.45;;;;;;;4.81;66.57;100342.70;1716290;82;21195;-66
2022/02/06 08:14:51;;;;;;;15.93;9.13;;;;;;;4.85;66.22;100352.77;1738142;82;21852;-66
2022/02/06 08:17:56;;;;;;;18.32;10.35;;;;;;;4.87;66.28;100358.41;1738221;82;21753;-64
2022/02/06 08:21:01;;;;;;;12.53;7.85;;;;;;;5.00;66.00;100352.70;1737081;82;21220;-64
2022/02/06 08:24:07;;;;;;;28.25;9.48;;;;;;;5.04;65.77;100353.67;1737454;82;21421;-62
2022/02/06 08:27:12;;;;;;;15.20;8.40;;;;;;;5.08;65.37;100361.00;1736871;82;21334;-62
2022/02/06 08:30:19;;;;;;;12.43;8.05;;;;;;;5.09;65.36;100362.73;1735535;79;21204;-63
2022/02/06 08:33:24;;;;;;;17.80;10.55;;;;;;;5.19;65.32;100369.00;1746770;82;21245;-62
2022/02/06 08:36:30;;;;;;;17.50;9.90;;;;;;;5.24;64.99;100366.23;1750447;82;21187;-63
2022/02/06 08:39:38;;;;;;;16.57;8.88;;;;;;;5.31;65.03;100366.52;1750698;81;21266;-62
2022/02/06 08:42:43;;;;;;;19.05;8.38;;;;;;;5.45;64.76;100368.31;1750770;81;21183;-63
2022/02/06 08:45:48;;;;;;;14.00;8.45;;;;;;;5.44;64.10;100375.24;1750583;82;21266;-61
2022/02/06 08:48:54;;;;;;;13.90;7.67;;;;;;;5.40;64.19;100368.37;1750712;81;21191;-62
2022/02/06 08:52:00;;;;;;;12.25;8.75;;;;;;;5.44;64.15;100369.81;1750432;82;21221;-61
2022/02/06 08:55:08;;;;;;;15.13;8.90;;;;;;;5.60;64.22;100372.77;1750725;82;21218;-61
2022/02/06 08:58:12;;;;;;;15.78;10.58;;;;;;;5.75;63.79;100380.35;1751158;81;21276;-61
2022/02/06 09:01:18;;;;;;;17.42;10.98;;;;;;;5.82;63.55;100384.70;1750709;82;21195;-60
2022/02/06 09:04:25;;;;;;;14.35;9.30;;;;;;;5.94;63.34;100383.56;1751092;82;21227;-62
2022/02/06 09:07:30;;;;;;;20.80;10.48;;;;;;;6.00;63.00;100381.61;1750889;82;21207;-62
2022/02/06 09:10:35;;;;;;;16.73;9.30;;;;;;;6.06;62.88;100383.73;1751100;81;21269;-62
2022/02/06 09:13:42;;;;;;;15.65;9.03;;;;;;;6.09;62.66;100388.87;1751942;81;21180;-62
2022/02/06 09:16:47;;;;;;;17.27;12.03;;;;;;;6.11;62.43;100386.87;1751715;82;21226;-62
2022/02/06 09:19:54;;;;;;;17.70;10.65;;;;;;;6.20;62.50;100389.22;1751675;82;21207;-61
2022/02/06 09:23:03;;;;;;;17.98;10.58;;;;;;;6.25;62.13;100385.03;1751940;81;21858;-60
2022/02/06 09:26:08;;;;;;;21.40;12.60;;;;;;;6.25;61.84;100378.23;1752097;81;21194;-62
2022/02/06 09:29:16;;;;;;;32.60;21.87;;;;;;;6.24;61.83;100383.33;1753184;81;21238;-61
2022/02/06 09:35:27;;;;;;;23.75;13.48;;;;;;;6.37;61.82;100382.99;1744015;82;21370;-62
2022/02/06 09:38:33;;;;;;;25.82;13.90;;;;;;;6.42;61.66;100379.33;1746363;81;21188;-61
2022/02/06 09:41:41;;;;;;;18.12;11.15;;;;;;;6.47;61.51;100372.42;1744993;81;21251;-61
2022/02/06 09:44:47;;;;;;;18.70;13.15;;;;;;;6.52;61.38;100380.12;1743682;82;21361;-61
2022/02/06 09:47:54;;;;;;;21.60;14.47;;;;;;;6.52;61.44;100388.28;1732154;82;21854;-61
2022/02/06 09:50:59;;;;;;;19.23;11.55;;;;;;;6.49;61.33;100361.39;1743375;81;21365;-62
2022/02/06 09:54:06;;;;;;;21.00;13.20;;;;;;;6.52;61.28;100368.75;1744211;81;21235;-61
2022/02/06 09:57:12;;;;;;;16.90;11.40;;;;;;;6.55;61.42;100369.80;1743820;81;21338;-60
2022/02/06 10:00:21;;;;;;;16.17;11.55;;;;;;;6.61;61.02;100371.91;1735501;81;21864;-60
2022/02/06 10:03:27;;;;;;;16.40;10.43;;;;;;;6.66;60.85;100370.97;1743401;82;21772;-61
2022/02/06 10:06:39;;;;;;;15.13;10.00;;;;;;;6.71;60.55;100370.50;1743013;82;21349;-61
2022/02/06 10:09:53;;;;;;;18.52;11.28;;;;;;;6.71;60.28;100371.38;1744074;81;21255;-60
2022/02/06 10:13:01;;;;;;;21.37;12.53;;;;;;;6.77;60.25;100373.48;1742884;81;21879;-60
2022/02/06 10:16:08;;;;;;;15.95;11.10;;;;;;;6.80;60.16;100371.81;1743085;81;21362;-61
2022/02/06 10:19:13;;;;;;;23.38;13.10;;;;;;;6.81;59.77;100372.19;1744019;81;21844;-61
2022/02/06 10:22:37;;;;;;;18.95;11.30;;;;;;;6.72;59.65;100373.11;1743013;82;22286;-60
2022/02/06 10:25:37;;;;;;;16.93;9.53;;;;;;;6.68;59.81;100370.81;1743006;81;21526;-62
2022/02/06 10:28:45;;;;;;;20.12;14.55;;;;;;;6.61;59.76;100370.55;1743507;82;21350;-63
2022/02/06 10:31:50;;;;;;;18.17;11.30;;;;;;;6.60;60.09;100364.77;1738855;81;21346;-62
2022/02/06 10:34:55;;;;;;;15.50;11.15;;;;;;;6.76;59.99;100366.83;1734425;81;21515;-59
2022/02/06 10:38:00;;;;;;;15.60;10.58;;;;;;;6.89;59.83;100369.56;1734506;82;21366;-61
2022/02/06 10:41:13;;;;;;;13.60;8.73;;;;;;;7.04;59.65;100353.04;1717600;82;21212;-62
2022/02/06 10:44:20;;;;;;;11.38;8.78;;;;;;;7.06;59.03;100352.89;1733789;81;21768;-61
2022/02/06 10:47:40;;;;;;;17.55;10.05;;;;;;;7.03;58.96;100351.34;1734660;82;21776;-62
2022/02/06 10:50:44;;;;;;;16.17;10.78;;;;;;;6.95;58.84;100356.70;1734831;81;21354;-63
2022/02/06 10:53:56;;;;;;;12.73;8.63;;;;;;;6.96;59.02;100361.11;1734936;81;21712;-61
2022/02/06 10:57:13;;;;;;;12.43;8.65;;;;;;;7.00;58.82;100338.54;1734586;82;21444;-62
2022/02/06 11:00:22;;;;;;;14.78;9.38;;;;;;;6.98;58.78;100345.50;1734186;81;21251;-61
2022/02/06 11:03:36;;;;;;;20.48;13.10;;;;;;;6.94;58.74;100348.69;1718409;82;21736;-60
2022/02/06 11:06:45;;;;;;;17.48;10.98;;;;;;;6.93;58.70;100345.63;1732915;82;21341;-61
2022/02/06 11:09:51;;;;;;;16.25;11.45;;;;;;;6.94;58.79;100345.47;1704288;82;21232;-62
2022/02/06 11:13:06;;;;;;;13.35;9.13;;;;;;;7.02;58.86;100340.61;1704734;84;21247;-62
2022/02/06 11:16:23;;;;;;;13.45;9.33;;;;;;;7.09;58.59;100352.57;1704674;83;21341;-62
2022/02/06 11:19:30;;;;;;;13.72;9.83;;;;;;;7.12;58.50;100350.41;1714759;81;21219;-62
2022/02/06 11:22:36;;;;;;;15.43;9.88;;;;;;;7.22;58.45;100359.36;1733817;82;21350;-62
2022/02/06 11:25:41;;;;;;;14.43;9.30;;;;;;;7.28;58.20;100364.19;1732590;83;21350;-64
2022/02/06 11:28:47;;;;;;;15.65;9.38;;;;;;;7.26;58.00;100363.47;1732068;83;21211;-62
2022/02/06 11:31:53;;;;;;;14.78;9.40;;;;;;;7.17;57.95;100361.69;1732942;81;21184;-64
2022/02/06 11:35:03;;;;;;;17.70;10.53;;;;;;;7.10;57.99;100368.75;1732836;81;21334;-66
2022/02/06 11:45:37;;;;;;;13.22;9.03;;;;;;;6.78;58.41;100360.74;1737376;81;21317;-63
2022/02/06 11:48:45;;;;;;;17.60;10.50;;;;;;;6.69;58.59;100369.30;1736822;81;21690;-64
2022/02/06 11:52:05;;;;;;;14.60;10.03;;;;;;;6.61;58.85;100352.87;1736705;82;21195;-64
2022/02/06 11:55:11;;;;;;;12.03;8.60;;;;;;;6.62;59.09;100357.33;1709389;82;21222;-64
2022/02/06 11:58:31;;;;;;;14.95;9.00;;;;;;;6.55;59.04;100356.20;1708055;83;21179;-65
2022/02/06 12:01:37;;;;;;;16.27;9.65;;;;;;;6.50;59.39;100361.77;1708769;83;21860;-65
2022/02/06 12:04:42;;;;;;;14.90;10.18;;;;;;;6.50;59.56;100361.23;1726961;82;21919;-64
2022/02/06 12:08:14;;;;;;;20.70;12.53;;;;;;;6.50;59.67;100357.69;1736844;82;21725;-66
2022/02/06 12:11:20;;;;;;;24.12;14.45;;;;;;;6.37;59.71;100362.11;1738539;82;21663;-64
2022/02/06 12:14:29;;;;;;;26.37;15.90;;;;;;;6.25;60.15;100366.53;1738119;81;21349;-65
2022/02/06 12:17:45;;;;;;;15.63;11.43;;;;;;;6.19;60.51;100366.61;1736994;82;21290;-65
2022/02/06 12:20:56;;;;;;;17.95;12.53;;;;;;;6.19;60.64;100370.68;1715506;81;21766;-65
2022/02/06 12:24:06;;;;;;;19.00;12.25;;;;;;;6.14;60.78;100373.51;1702988;83;21272;-64
2022/02/06 12:27:32;;;;;;;17.25;10.78;;;;;;;6.15;61.09;100373.36;1702392;83;21228;-63
2022/02/06 12:30:41;;;;;;;20.85;12.82;;;;;;;6.16;61.02;100370.11;1701953;84;21236;-64
2022/02/06 12:33:58;;;;;;;18.95;11.50;;;;;;;6.04;61.23;100375.73;1704858;82;21745;-64
2022/02/06 12:37:08;;;;;;;17.77;11.80;;;;;;;5.97;61.47;100376.47;1702794;83;21227;-64
2022/02/06 12:40:21;;;;;;;19.55;12.18;;;;;;;5.89;61.68;100373.63;1702297;83;21230;-64
2022/02/06 12:43:29;;;;;;;17.20;10.78;;;;;;;5.88;61.84;100365.13;1701949;84;21217;-63
2022/02/06 12:46:34;;;;;;;16.15;11.35;;;;;;;5.81;61.93;100357.17;1684024;84;21224;-62
2022/02/06 12:49:43;;;;;;;17.73;11.43;;;;;;;5.76;62.08;100383.91;1667041;85;21246;-64
2022/02/06 12:52:50;;;;;;;16.48;10.78;;;;;;;5.71;62.29;100378.05;1668195;86;21806;-66
2022/02/06 12:55:56;;;;;;;18.52;12.28;;;;;;;5.67;62.51;100372.07;1705884;83;21874;-64
2022/02/06 12:59:02;;;;;;;19.42;12.33;;;;;;;5.54;62.69;100367.92;1688726;83;21346;-67
2022/02/06 13:02:08;;;;;;;17.35;11.63;;;;;;;5.41;63.18;100361.93;1646845;86;21221;-64
2022/02/06 13:05:15;;;;;;;18.52;12.07;;;;;;;5.37;63.44;100365.95;1657940;85;21497;-62
2022/02/06 13:08:21;;;;;;;25.50;13.80;;;;;;;5.31;63.67;100374.66;1711471;82;21693;-62
2022/02/06 13:11:40;;;;;;;21.00;13.32;;;;;;;5.22;63.93;100370.94;1657396;85;21226;-64
2022/02/06 13:18:37;;;;;;;25.60;16.62;;;;;;;5.09;64.49;100370.88;1703342;84;21411;-63
2022/02/06 13:34:29;;;;;;;21.12;14.13;;;;;;;4.88;65.40;100367.41;1659892;82;21255;-63
2022/02/06 13:37:41;;;;;;;23.70;14.60;;;;;;;4.83;65.52;100375.97;1703113;83;21787;-62
2022/02/06 13:40:36;;;;;;;25.85;15.35;;;;;;;4.77;65.68;100377.89;1711679;82;21624;-63
2022/02/06 13:43:53;;;;;;;26.80;17.15;;;;;;;4.70;65.79;100376.71;1712628;82;21203;-62
2022/02/06 13:46:59;;;;;;;48.00;24.50;;;;;;;4.64;66.04;100369.14;1713027;83;21815;-64
2022/02/06 13:50:08;;;;;;;36.40;22.22;;;;;;;4.60;66.24;100375.33;1712844;82;21509;-61
2022/02/06 13:53:24;;;;;;;28.47;18.60;;;;;;;4.55;66.40;100372.69;1701248;83;21222;-61
2022/02/06 13:56:31;;;;;;;32.67;21.12;;;;;;;4.47;66.58;100370.64;1713785;83;21266;-61
2022/02/06 13:59:47;;;;;;;32.00;18.75;;;;;;;4.42;66.84;100375.61;1732172;81;21365;-64
2022/02/06 14:03:03;;;;;;;40.28;25.62;;;;;;;4.37;67.03;100363.48;1740900;81;21742;-61
2022/02/06 14:06:09;;;;;;;31.20;20.40;;;;;;;4.35;67.22;100371.76;1741388;81;21203;-63
2022/02/06 14:09:26;;;;;;;29.77;16.70;;;;;;;4.33;67.35;100369.67;1728051;82;21800;-60
2022/02/06 14:12:28;;;;;;;24.40;13.80;;;;;;;4.33;67.52;100372.38;1704034;84;21202;-61
2022/02/06 14:15:35;;;;;;;67.25;42.53;;;;;;;4.31;67.63;100364.88;1734541;82;21192;-60
2022/02/06 14:18:40;;;;;;;24.55;16.20;;;;;;;4.31;67.70;100378.95;1741751;82;21333;-61
2022/02/06 14:21:51;;;;;;;21.50;14.40;;;;;;;4.28;67.74;100370.57;1744144;81;21248;-60
2022/02/06 14:24:58;;;;;;;24.25;14.83;;;;;;;4.28;67.82;100371.92;1744422;81;21274;-60
2022/02/06 14:28:04;;;;;;;27.62;16.02;;;;;;;4.27;67.88;100366.16;1743157;82;21345;-60
2022/02/06 14:31:09;;;;;;;59.38;35.80;;;;;;;4.25;67.88;100370.02;1743167;82;21206;-60
2022/02/06 14:34:26;;;;;;;35.28;23.15;;;;;;;4.18;68.07;100373.76;1745166;81;21287;-61
2022/02/06 14:37:31;;;;;;;24.67;15.83;;;;;;;4.14;68.23;100369.59;1737892;81;21362;-61
2022/02/06 14:40:50;;;;;;;27.10;18.37;;;;;;;4.09;68.32;100375.91;1737664;81;21292;-59
2022/02/06 14:43:48;;;;;;;35.25;19.70;;;;;;;4.02;68.46;100370.68;1737595;81;21326;-60
2022/02/06 14:46:54;;;;;;;32.58;17.90;;;;;;;3.97;68.68;100382.89;1738089;82;21357;-60
2022/02/06 14:50:00;;;;;;;21.25;14.45;;;;;;;3.94;68.91;100370.98;1736939;81;21406;-60
2022/02/06 14:53:06;;;;;;;35.33;21.60;;;;;;;3.92;68.98;100375.66;1737473;82;21342;-61
2022/02/06 14:56:12;;;;;;;32.63;19.07;;;;;;;3.88;69.04;100372.39;1737473;82;21326;-60
2022/02/06 14:59:19;;;;;;;38.28;22.32;;;;;;;3.87;69.16;100370.66;1726212;81;21423;-60
2022/02/06 15:02:25;;;;;;;35.35;21.52;;;;;;;3.87;69.20;100367.11;1737931;82;21409;-60
2022/02/06 15:05:30;;;;;;;32.95;20.35;;;;;;;3.86;69.23;100373.50;1737875;81;21212;-60
2022/02/06 15:08:37;;;;;;;25.10;14.23;;;;;;;3.83;69.25;100365.16;1737672;82;21212;-61
2022/02/06 15:11:44;;;;;;;24.37;13.80;;;;;;;3.83;69.26;100366.52;1737891;82;21345;-60
2022/02/06 15:14:49;;;;;;;22.02;14.05;;;;;;;3.84;69.28;100356.52;1737619;81;21259;-59
2022/02/06 15:17:58;;;;;;;31.87;18.35;;;;;;;3.83;69.27;100352.98;1735362;82;21337;-61
2022/02/06 15:21:04;;;;;;;40.85;23.12;;;;;;;3.84;69.28;100354.68;1737708;82;21216;-60
2022/02/06 15:24:09;;;;;;;33.15;19.30;;;;;;;3.88;69.28;100354.79;1736590;82;21339;-59
2022/02/06 15:27:15;;;;;;;31.87;20.32;;;;;;;3.89;69.21;100357.84;1736044;82;21197;-61
2022/02/06 15:30:21;;;;;;;32.65;21.65;;;;;;;3.87;68.94;100366.59;1726039;82;21337;-59
2022/02/06 15:33:27;;;;;;;37.58;21.90;;;;;;;3.85;68.84;100359.13;1735768;82;21342;-60
2022/02/06 15:36:35;;;;;;;34.95;20.82;;;;;;;3.84;68.61;100363.28;1735648;81;21368;-60
2022/02/06 15:39:40;;;;;;;30.75;18.05;;;;;;;3.77;68.36;100367.53;1736659;82;21868;-60
2022/02/06 15:42:46;;;;;;;29.18;17.35;;;;;;;3.68;68.34;100367.83;1736829;82;21358;-60
2022/02/06 15:45:53;;;;;;;24.35;15.78;;;;;;;3.59;68.39;100369.12;1736646;81;21215;-60
2022/02/06 15:48:59;;;;;;;25.62;13.88;;;;;;;3.51;68.53;100369.78;1738282;81;21772;-60
2022/02/06 15:52:05;;;;;;;29.67;16.55;;;;;;;3.46;68.74;100369.31;1738551;82;21709;-61
2022/02/06 15:55:11;;;;;;;25.95;15.80;;;;;;;3.42;68.86;100369.23;1702227;82;21216;-62
2022/02/06 15:58:17;;;;;;;18.27;11.95;;;;;;;3.37;68.98;100371.95;1706898;83;21212;-63
2022/02/06 16:01:25;;;;;;;21.33;13.13;;;;;;;3.29;69.12;100378.02;1706505;83;21338;-64
2022/02/06 16:04:31;;;;;;;20.43;12.43;;;;;;;3.24;69.26;100377.55;1735508;82;21389;-61
2022/02/06 16:07:36;;;;;;;18.73;11.80;;;;;;;3.17;69.41;100380.90;1736695;82;21306;-60
2022/02/06 16:10:42;;;;;;;18.55;11.50;;;;;;;3.13;69.57;100384.35;1736677;82;21203;-61
2022/02/06 16:13:46;;;;;;;17.95;10.40;;;;;;;3.11;69.71;100382.77;1736133;82;21195;-60
2022/02/06 16:16:52;;;;;;;20.05;12.82;;;;;;;3.11;69.81;100384.97;1736339;82;21330;-61
2022/02/06 16:19:57;;;;;;;21.97;13.22;;;;;;;3.12;69.84;100384.00;1736652;82;21891;-61
2022/02/06 16:23:04;;;;;;;16.93;11.55;;;;;;;3.15;69.89;100383.73;1737084;82;21272;-61
2022/02/06 16:26:12;;;;;;;14.87;10.05;;;;;;;3.17;69.93;100380.42;1737191;82;21366;-60
2022/02/06 16:29:18;;;;;;;19.60;12.63;;;;;;;3.21;69.96;100379.64;1704404;82;21217;-61
2022/02/06 16:32:24;;;;;;;26.97;14.93;;;;;;;3.23;69.90;100387.14;1696169;83;21298;-61
2022/02/06 16:35:30;;;;;;;29.20;16.25;;;;;;;3.25;69.85;100386.52;1703863;83;21208;-60